首页
METAR-TAF:

METAR-TAF

机场 :

突尼斯-迦太基国际机场

突尼斯, 突尼斯

纬度: 36-50N, 经度: 010-14E, 海拔: 3米

当前天气观测

该预报发布于43分钟前的05:30 UTC
风速8节,风向南转西南
温度 11°C
湿度 76%
气压 1020 hPa
能见度10公里或以上
散云层高于2600英尺

METAR: DTTA 120530Z 20008KT 9999 SCT026 11/07 Q1020 NOSIG

时间: 07:13 (06:13 UTC)

预报

该预报发布于43分钟前的05:30 UTC
预报有效从12日的 06点(UTC)到 13日的 06点(UTC)
风速8节,风向南转西南
能见度10公里或以上
散云层高于2300英尺
几率 30% :
短暂存在
从 12日的 09点(UTC)到 12日的 12点(UTC)
散云层高于2300英尺, 塔状积云.
成为
从 12日的 16点(UTC)到 12日的 18点(UTC)
风速15节,风向西

TAF: DTTA 120530Z 1206/1306 21008KT 9999 SCT023 PROB30 TEMPO 1209/1212 SCT023TCU BECMG 1216/1218 27015KT

超过4000个机场的气象观测和天气预报(METAR&TAF报告)。

可查询的气象台以黄色和红色小点在地图上表示。

将鼠标移到小点上方,可查看气象台名称。

然后点击查看天气观测和预报。

如需切换地图:点击带黑十字的绿色按钮放大地图;点击带横线的绿色按钮缩小地图;或者点击绿色箭头查看邻近地区的地图。


METAR-TAF: